Time;durP1;ratioP1;P1;durP2;ratioP2;P2;SDS_P1;SDS_P2;PMS_P1;PMS_P2;Temp;Humidity;BMP_temperature;BMP_pressure;BME280_temperature;BME280_humidity;BME280_pressure;Samples;Min_cycle;Max_cycle;Signal;HPM_P1;HPM_P2
2022/08/26 00:02:06;;;;;;;17.95;16.00;;;18.70;99.90;;;;;;5094306;28;20265;-79
2022/08/26 00:04:33;;;;;;;19.80;15.98;;;18.70;99.90;;;;;;5094226;28;20199;-78
2022/08/26 00:06:59;;;;;;;19.58;16.38;;;18.60;99.90;;;;;;5094355;28;20253;-80
2022/08/26 00:09:26;;;;;;;17.83;15.55;;;18.50;99.90;;;;;;5094318;28;20269;-79
2022/08/26 00:11:54;;;;;;;19.23;16.38;;;18.40;99.90;;;;;;5094215;28;20249;-80
2022/08/26 00:14:23;;;;;;;24.98;15.82;;;18.30;99.90;;;;;;5094153;28;20552;-80
2022/08/26 00:16:50;;;;;;;18.30;15.65;;;18.40;99.90;;;;;;5094056;28;20246;-79
2022/08/26 00:19:19;;;;;;;18.00;15.15;;;18.40;99.90;;;;;;5093910;28;20285;-79
2022/08/26 00:21:46;;;;;;;17.63;15.85;;;18.40;99.90;;;;;;5094217;28;20317;-80
2022/08/26 00:24:13;;;;;;;19.30;16.02;;;18.40;99.90;;;;;;5093935;28;20196;-79
2022/08/26 00:26:40;;;;;;;23.08;16.13;;;18.60;99.90;;;;;;5093813;28;20704;-79
2022/08/26 00:29:07;;;;;;;22.58;15.05;;;18.70;99.90;;;;;;5093758;28;20193;-80
2022/08/26 00:31:35;;;;;;;17.73;15.10;;;18.80;99.90;;;;;;5093626;28;20200;-80
2022/08/26 00:34:01;;;;;;;17.75;14.48;;;18.90;99.90;;;;;;5093743;28;20655;-79
2022/08/26 00:36:28;;;;;;;16.33;14.75;;;18.80;99.90;;;;;;5093844;28;20273;-80
2022/08/26 00:38:55;;;;;;;15.95;14.38;;;18.80;99.90;;;;;;5093484;28;20683;-79
2022/08/26 00:41:21;;;;;;;18.67;14.38;;;18.80;99.90;;;;;;5093682;28;20545;-80
2022/08/26 00:43:48;;;;;;;16.23;14.32;;;18.70;99.90;;;;;;5093634;28;20196;-80
2022/08/26 00:46:19;;;;;;;16.60;13.85;;;18.60;99.90;;;;;;5093666;28;20196;-80
2022/08/26 00:48:51;;;;;;;17.55;14.88;;;18.60;99.90;;;;;;5093952;28;20196;-80
2022/08/26 00:51:21;;;;;;;18.88;14.38;;;18.50;99.90;;;;;;5092624;28;20591;-79
2022/08/26 00:53:53;;;;;;;17.80;15.20;;;18.60;99.90;;;;;;5093444;28;20196;-80
2022/08/26 00:56:25;;;;;;;17.10;15.05;;;18.70;99.90;;;;;;5093515;28;20196;-80
2022/08/26 00:58:55;;;;;;;18.27;14.85;;;18.60;99.90;;;;;;5093485;28;20622;-79
2022/08/26 01:01:21;;;;;;;18.90;14.30;;;18.50;99.90;;;;;;5095209;28;20200;-80
2022/08/26 01:03:49;;;;;;;17.40;15.25;;;18.40;99.90;;;;;;5094035;28;20192;-79
2022/08/26 01:06:16;;;;;;;16.95;15.15;;;18.40;99.90;;;;;;5093312;28;20196;-80
2022/08/26 01:08:43;;;;;;;18.73;15.43;;;18.30;99.90;;;;;;5093183;28;20625;-80
2022/08/26 01:11:11;;;;;;;18.40;14.23;;;18.20;99.90;;;;;;5093073;28;20196;-80
2022/08/26 01:13:38;;;;;;;16.55;14.85;;;18.10;99.90;;;;;;5093395;28;20204;-80
2022/08/26 01:16:08;;;;;;;18.63;14.90;;;18.10;99.90;;;;;;5093235;28;20192;-80
2022/08/26 01:18:35;;;;;;;18.17;15.15;;;18.00;99.90;;;;;;5093191;28;20192;-78
2022/08/26 01:21:12;;;;;;;17.85;15.95;;;18.00;99.90;;;;;;5093131;28;20197;-78
2022/08/26 01:23:43;;;;;;;17.98;16.17;;;17.80;99.90;;;;;;5093003;28;20602;-80
2022/08/26 01:26:12;;;;;;;18.55;16.67;;;17.80;99.90;;;;;;5093288;28;20196;-78
2022/08/26 01:28:40;;;;;;;20.63;16.73;;;17.70;99.90;;;;;;5093194;28;20196;-79
2022/08/26 01:31:10;;;;;;;21.05;18.70;;;17.80;99.90;;;;;;5092857;28;20239;-79
2022/08/26 01:33:43;;;;;;;19.58;17.48;;;17.70;99.90;;;;;;5093015;28;20220;-79
2022/08/26 01:36:11;;;;;;;21.85;18.92;;;17.60;99.90;;;;;;5092762;28;20590;-79
2022/08/26 01:38:40;;;;;;;22.55;18.88;;;17.50;99.90;;;;;;5092920;28;20200;-80
2022/08/26 01:41:08;;;;;;;20.77;18.65;;;17.60;99.90;;;;;;5092707;28;20560;-79
2022/08/26 01:43:38;;;;;;;21.25;18.60;;;17.50;99.90;;;;;;5092833;28;20229;-80
2022/08/26 01:46:05;;;;;;;21.45;18.48;;;17.50;99.90;;;;;;5093039;28;20196;-79
2022/08/26 01:48:34;;;;;;;25.27;18.80;;;17.60;99.90;;;;;;5092639;28;20200;-79
2022/08/26 01:51:04;;;;;;;19.83;17.83;;;17.60;99.90;;;;;;5093019;28;20201;-79
2022/08/26 01:53:31;;;;;;;23.52;18.38;;;17.50;99.90;;;;;;5092686;28;20685;-80
2022/08/26 01:56:02;;;;;;;22.85;18.70;;;17.50;99.90;;;;;;5092508;28;20748;-80
2022/08/26 01:58:34;;;;;;;21.45;18.13;;;17.50;99.90;;;;;;5092789;28;20192;-79
2022/08/26 02:01:02;;;;;;;23.20;17.88;;;17.40;99.90;;;;;;5092628;28;20215;-80
2022/08/26 02:03:29;;;;;;;21.20;18.38;;;17.40;99.90;;;;;;5096597;28;20208;-80
2022/08/26 02:05:58;;;;;;;23.08;18.23;;;17.40;99.90;;;;;;5096911;28;20197;-80
2022/08/26 02:08:28;;;;;;;22.75;18.42;;;17.50;99.90;;;;;;5096557;28;20253;-80
2022/08/26 02:10:55;;;;;;;22.65;18.02;;;17.50;99.90;;;;;;5096598;28;20206;-79
2022/08/26 02:13:26;;;;;;;19.23;17.23;;;17.50;99.90;;;;;;5096482;28;20197;-80
2022/08/26 02:15:54;;;;;;;19.80;17.73;;;17.40;99.90;;;;;;5096358;28;20242;-79
2022/08/26 02:18:21;;;;;;;21.65;17.83;;;17.40;99.90;;;;;;5096598;28;20207;-79
2022/08/26 02:20:47;;;;;;;24.23;18.88;;;17.30;99.90;;;;;;5096427;28;20232;-80
2022/08/26 02:23:14;;;;;;;23.63;16.80;;;17.30;99.90;;;;;;5096352;28;20249;-80
2022/08/26 02:25:47;;;;;;;21.63;18.58;;;17.30;99.90;;;;;;5096264;28;20196;-80
2022/08/26 02:28:16;;;;;;;21.45;19.15;;;17.20;99.90;;;;;;5096213;28;20204;-79
2022/08/26 02:30:45;;;;;;;23.20;18.30;;;17.20;99.90;;;;;;5096278;28;20283;-80
2022/08/26 02:33:12;;;;;;;23.70;19.17;;;17.10;99.90;;;;;;5096131;28;20265;-79
2022/08/26 02:35:39;;;;;;;22.98;18.35;;;17.20;99.90;;;;;;5096081;28;20245;-79
2022/08/26 02:38:09;;;;;;;23.13;18.40;;;17.20;99.90;;;;;;5096082;28;20276;-80
2022/08/26 02:40:39;;;;;;;22.98;18.92;;;17.10;99.90;;;;;;5096403;28;20220;-79
2022/08/26 02:43:06;;;;;;;21.00;18.00;;;17.30;99.90;;;;;;5096193;28;20254;-80
2022/08/26 02:45:33;;;;;;;22.90;18.67;;;17.20;99.90;;;;;;5095766;28;20597;-80
2022/08/26 02:48:08;;;;;;;21.50;18.33;;;17.20;99.90;;;;;;5095890;28;20276;-79
2022/08/26 02:50:35;;;;;;;25.98;17.55;;;17.10;99.90;;;;;;5095890;28;20628;-79
2022/08/26 02:53:01;;;;;;;20.02;17.73;;;17.10;99.90;;;;;;5095661;28;20196;-79
2022/08/26 02:55:28;;;;;;;21.63;17.85;;;17.20;99.90;;;;;;5095348;28;20224;-79
2022/08/26 02:57:55;;;;;;;25.45;19.23;;;17.10;99.90;;;;;;5095807;28;20246;-79
2022/08/26 03:00:22;;;;;;;21.00;17.75;;;17.10;99.90;;;;;;5095601;28;20232;-79
2022/08/26 03:02:49;;;;;;;22.67;17.98;;;17.10;99.90;;;;;;5095542;28;20196;-78
2022/08/26 03:05:18;;;;;;;23.50;20.15;;;17.00;99.90;;;;;;5095432;28;20200;-78
2022/08/26 03:07:45;;;;;;;23.90;19.35;;;17.10;99.90;;;;;;5095283;28;20290;-78
2022/08/26 03:10:12;;;;;;;21.92;19.38;;;17.00;99.90;;;;;;5095515;28;20204;-78
2022/08/26 03:12:39;;;;;;;25.48;19.63;;;17.10;99.90;;;;;;5094900;28;20648;-78
2022/08/26 03:15:08;;;;;;;22.55;19.48;;;17.10;99.90;;;;;;5094556;28;20651;-78
2022/08/26 03:17:34;;;;;;;24.80;19.45;;;17.20;99.90;;;;;;5095270;28;20692;-78
2022/08/26 03:20:01;;;;;;;23.65;18.45;;;17.10;99.90;;;;;;5095078;28;20278;-78
2022/08/26 03:22:29;;;;;;;23.95;19.02;;;17.10;99.90;;;;;;5095084;28;20204;-78
2022/08/26 03:24:56;;;;;;;24.58;19.73;;;17.20;99.90;;;;;;5095034;28;20648;-78
2022/08/26 03:27:23;;;;;;;25.35;19.92;;;17.10;99.90;;;;;;5094952;28;20713;-78
2022/08/26 03:32:33;;;;;;;22.38;19.58;;;16.80;99.90;;;;;;5095045;28;20204;-78
2022/08/26 03:35:00;;;;;;;23.77;19.85;;;16.80;99.90;;;;;;5094997;28;20261;-78
2022/08/26 03:37:28;;;;;;;26.33;20.48;;;16.70;99.90;;;;;;5095152;28;20204;-78
2022/08/26 03:39:55;;;;;;;27.23;20.10;;;16.70;99.90;;;;;;5095101;28;20221;-78
2022/08/26 03:42:22;;;;;;;22.83;19.25;;;16.80;99.90;;;;;;5094962;28;20196;-78
2022/08/26 03:44:50;;;;;;;26.30;20.75;;;16.80;99.90;;;;;;5094801;28;20671;-78
2022/08/26 03:47:17;;;;;;;23.08;20.20;;;16.70;99.90;;;;;;5094708;28;20287;-77
2022/08/26 03:49:43;;;;;;;24.98;21.63;;;16.60;99.90;;;;;;5095066;28;20249;-78
2022/08/26 03:52:10;;;;;;;25.52;20.65;;;16.50;99.90;;;;;;5095116;28;20595;-80
2022/08/26 03:54:39;;;;;;;29.35;20.38;;;16.60;99.90;;;;;;5094718;28;20228;-78
2022/08/26 03:57:07;;;;;;;25.30;20.48;;;16.50;99.90;;;;;;5094645;28;20250;-78
2022/08/26 03:59:34;;;;;;;22.40;20.00;;;16.40;99.90;;;;;;5094461;28;20220;-79
2022/08/26 04:02:01;;;;;;;25.63;21.05;;;16.40;99.90;;;;;;5094344;28;20199;-78
2022/08/26 04:04:27;;;;;;;23.08;20.50;;;16.60;99.90;;;;;;5094534;28;20226;-79
2022/08/26 04:06:57;;;;;;;26.17;21.20;;;16.60;99.90;;;;;;5094375;28;20196;-78
2022/08/26 04:09:26;;;;;;;26.35;20.33;;;16.60;99.90;;;;;;5094190;28;20206;-78
2022/08/26 04:11:56;;;;;;;24.17;20.77;;;16.60;99.90;;;;;;5094227;28;20196;-78
2022/08/26 04:14:25;;;;;;;24.80;20.35;;;16.50;99.90;;;;;;5094090;28;20230;-78
2022/08/26 04:16:54;;;;;;;23.77;19.70;;;16.40;99.90;;;;;;5094295;28;20219;-78
2022/08/26 04:19:21;;;;;;;22.42;20.00;;;16.30;99.90;;;;;;5094213;28;20203;-78
2022/08/26 04:21:50;;;;;;;23.48;20.67;;;16.30;99.90;;;;;;5094076;28;20204;-78
2022/08/26 04:24:17;;;;;;;25.10;21.13;;;16.30;99.90;;;;;;5093841;28;20203;-78
2022/08/26 04:26:44;;;;;;;21.38;19.02;;;16.20;99.90;;;;;;5094313;28;20200;-78
2022/08/26 04:29:16;;;;;;;26.15;20.83;;;16.20;99.90;;;;;;5093610;28;20664;-78
2022/08/26 04:31:42;;;;;;;24.02;20.05;;;16.20;99.90;;;;;;5093712;28;20701;-78
2022/08/26 04:34:10;;;;;;;23.58;20.48;;;16.20;99.90;;;;;;5093675;28;20713;-78
2022/08/26 04:36:36;;;;;;;26.73;21.33;;;16.20;99.90;;;;;;5093860;28;20200;-78
2022/08/26 04:39:05;;;;;;;25.35;20.98;;;16.20;99.90;;;;;;5096650;28;20271;-78
2022/08/26 04:41:32;;;;;;;32.13;21.85;;;16.20;99.90;;;;;;5094278;28;20208;-78
2022/08/26 04:44:01;;;;;;;29.63;21.83;;;16.20;99.90;;;;;;5093907;28;20200;-79
2022/08/26 04:46:29;;;;;;;29.15;20.33;;;16.40;99.90;;;;;;5093732;28;20361;-78
2022/08/26 04:48:55;;;;;;;29.73;20.85;;;16.30;99.90;;;;;;5093541;28;20229;-79
2022/08/26 04:51:26;;;;;;;28.63;22.23;;;16.50;99.90;;;;;;5093428;28;20297;-79
2022/08/26 04:53:55;;;;;;;27.88;21.70;;;16.50;99.90;;;;;;5093179;28;20220;-78
2022/08/26 04:56:24;;;;;;;30.17;21.10;;;16.70;99.90;;;;;;5093292;28;20210;-78
2022/08/26 04:58:50;;;;;;;23.83;20.65;;;16.60;99.90;;;;;;5093423;28;20284;-78
2022/08/26 05:01:17;;;;;;;23.83;20.63;;;16.60;99.90;;;;;;5093371;28;20204;-78
2022/08/26 05:03:45;;;;;;;22.33;19.35;;;16.60;99.90;;;;;;5093508;28;20228;-79
2022/08/26 05:06:12;;;;;;;26.55;21.15;;;16.80;99.90;;;;;;5093257;28;20204;-79
2022/08/26 05:08:39;;;;;;;23.45;19.80;;;16.70;99.90;;;;;;5093101;28;20192;-78
2022/08/26 05:11:07;;;;;;;24.48;19.92;;;16.80;99.90;;;;;;5093147;28;20636;-79
2022/08/26 05:13:34;;;;;;;23.98;20.83;;;16.80;99.90;;;;;;5093836;28;20200;-79
2022/08/26 05:16:03;;;;;;;22.55;19.40;;;16.90;99.90;;;;;;5093160;28;20200;-78
2022/08/26 05:18:30;;;;;;;27.55;21.08;;;16.90;99.90;;;;;;5093092;28;20291;-78
2022/08/26 05:20:58;;;;;;;27.17;20.73;;;17.00;99.90;;;;;;5092931;28;20196;-78
2022/08/26 05:23:25;;;;;;;22.55;20.13;;;17.00;99.90;;;;;;5093163;28;20250;-78
2022/08/26 05:25:53;;;;;;;23.20;20.17;;;17.10;99.90;;;;;;5093085;28;20606;-78
2022/08/26 05:28:21;;;;;;;23.73;19.90;;;17.20;99.90;;;;;;5093172;28;20249;-78
2022/08/26 05:30:49;;;;;;;25.23;19.90;;;17.20;99.90;;;;;;5092826;28;20242;-79
2022/08/26 05:33:16;;;;;;;23.60;20.52;;;17.30;99.90;;;;;;5092953;28;20271;-79
2022/08/26 05:35:43;;;;;;;24.85;19.83;;;17.40;99.90;;;;;;5092705;28;20200;-78
2022/08/26 05:38:14;;;;;;;21.27;18.63;;;17.50;99.90;;;;;;5096310;28;20647;-79
2022/08/26 05:40:43;;;;;;;23.85;18.42;;;17.60;99.90;;;;;;5097191;28;20200;-78
2022/08/26 05:43:10;;;;;;;21.33;19.05;;;17.60;99.90;;;;;;5097176;28;20203;-79
2022/08/26 05:45:37;;;;;;;24.35;20.23;;;17.70;99.90;;;;;;5097147;28;20204;-79
2022/08/26 05:48:06;;;;;;;21.77;19.30;;;17.80;99.90;;;;;;5096963;28;20198;-79
2022/08/26 05:50:37;;;;;;;24.10;19.38;;;17.90;99.90;;;;;;5096648;28;20273;-79
2022/08/26 05:53:04;;;;;;;25.70;19.63;;;18.00;99.90;;;;;;5096948;28;20298;-79
2022/08/26 05:55:32;;;;;;;21.90;19.02;;;18.10;99.90;;;;;;5096464;28;20285;-79
2022/08/26 05:57:59;;;;;;;24.80;20.27;;;18.20;99.90;;;;;;5096652;28;20207;-79
2022/08/26 06:00:26;;;;;;;22.30;19.15;;;18.40;99.90;;;;;;5096652;28;20655;-79
2022/08/26 06:02:53;;;;;;;28.58;19.30;;;18.50;99.90;;;;;;5096480;28;20196;-79
2022/08/26 06:05:19;;;;;;;25.42;20.15;;;18.70;99.90;;;;;;5096799;28;20681;-79
2022/08/26 06:10:32;;;;;;;26.73;18.83;;;18.80;99.90;;;;;;5096417;28;20219;-79
2022/08/26 06:12:59;;;;;;;21.77;18.90;;;18.90;99.90;;;;;;5096403;28;20246;-79
2022/08/26 06:15:25;;;;;;;24.45;19.38;;;19.00;99.90;;;;;;5096251;28;20281;-79
2022/08/26 06:17:52;;;;;;;22.48;20.20;;;19.10;99.90;;;;;;5096126;28;20196;-79
2022/08/26 06:20:19;;;;;;;27.88;19.90;;;19.20;99.90;;;;;;5096470;28;20196;-79
2022/08/26 06:25:38;;;;;;;21.58;19.33;;;19.40;99.90;;;;;;5096234;28;20390;-79
2022/08/26 06:28:07;;;;;;;27.77;20.33;;;19.30;99.90;;;;;;5095992;28;20249;-79
2022/08/26 06:30:38;;;;;;;26.98;21.17;;;19.40;99.90;;;;;;5096207;28;20228;-79
2022/08/26 06:33:04;;;;;;;27.13;20.45;;;19.60;99.90;;;;;;5096054;28;20723;-79
2022/08/26 06:35:36;;;;;;;24.75;19.85;;;19.80;99.90;;;;;;5095842;28;20253;-80
2022/08/26 06:38:03;;;;;;;25.88;19.00;;;19.90;99.90;;;;;;5095986;28;20426;-80
2022/08/26 06:40:29;;;;;;;25.45;20.23;;;20.20;99.90;;;;;;5095863;28;20655;-80
2022/08/26 06:42:56;;;;;;;24.65;18.55;;;20.30;99.90;;;;;;5095893;28;20192;-79
2022/08/26 06:45:24;;;;;;;20.70;17.65;;;20.50;99.90;;;;;;5095930;28;20251;-79
2022/08/26 06:47:51;;;;;;;23.25;18.25;;;20.60;99.90;;;;;;5095731;28;20207;-79
2022/08/26 06:50:18;;;;;;;24.77;19.48;;;20.80;99.90;;;;;;5095623;28;20196;-79
2022/08/26 06:52:44;;;;;;;24.17;18.35;;;20.90;99.90;;;;;;5095617;28;20200;-79
2022/08/26 06:55:11;;;;;;;21.05;17.63;;;21.10;99.90;;;;;;5095375;28;20768;-80
2022/08/26 06:57:38;;;;;;;22.23;18.20;;;21.20;99.90;;;;;;5095625;28;20197;-80
2022/08/26 07:00:07;;;;;;;25.17;19.33;;;21.30;99.90;;;;;;5095729;28;20200;-79
2022/08/26 07:02:35;;;;;;;22.67;18.02;;;21.30;99.90;;;;;;5095316;28;20598;-79
2022/08/26 07:05:02;;;;;;;23.00;16.88;;;21.50;99.90;;;;;;5095463;28;20196;-79
2022/08/26 07:07:29;;;;;;;28.75;17.42;;;21.60;99.90;;;;;;5095244;28;20713;-79
2022/08/26 07:09:56;;;;;;;25.08;17.58;;;21.80;99.90;;;;;;5095526;28;20208;-79
2022/08/26 07:12:22;;;;;;;23.65;16.55;;;22.00;99.90;;;;;;5095338;28;20232;-78
2022/08/26 07:14:49;;;;;;;21.75;16.08;;;22.30;99.90;;;;;;5095215;28;20274;-78
2022/08/26 07:17:17;;;;;;;26.30;16.63;;;22.50;99.90;;;;;;5095097;28;20253;-79
2022/08/26 07:19:45;;;;;;;16.38;14.80;;;22.80;99.90;;;;;;5094990;28;20647;-78
2022/08/26 07:22:12;;;;;;;23.02;16.25;;;23.00;99.90;;;;;;5095315;28;20207;-78
2022/08/26 07:24:40;;;;;;;20.83;16.15;;;23.20;99.90;;;;;;5094976;28;20579;-78
2022/08/26 07:27:10;;;;;;;25.77;15.63;;;23.20;99.90;;;;;;5094853;28;20263;-78
2022/08/26 07:29:38;;;;;;;19.70;14.80;;;23.50;99.90;;;;;;5094966;28;20196;-80
2022/08/26 07:32:06;;;;;;;25.13;15.65;;;23.90;99.90;;;;;;5094713;28;20254;-79
2022/08/26 07:34:33;;;;;;;19.92;15.18;;;24.20;99.90;;;;;;5094715;28;20195;-79
2022/08/26 07:37:01;;;;;;;20.73;14.85;;;24.40;99.90;;;;;;5094793;28;20196;-79
2022/08/26 07:39:29;;;;;;;17.35;14.95;;;25.00;99.90;;;;;;5094732;28;20200;-78
2022/08/26 07:41:55;;;;;;;25.20;14.55;;;25.10;99.90;;;;;;5094661;28;20196;-78
2022/08/26 07:44:23;;;;;;;18.70;13.93;;;25.30;99.90;;;;;;5094318;28;20249;-78
2022/08/26 07:46:50;;;;;;;17.35;13.05;;;25.80;99.90;;;;;;5094711;28;20227;-78
2022/08/26 07:49:17;;;;;;;23.85;12.55;;;26.30;99.90;;;;;;5094345;28;20227;-79
2022/08/26 07:51:44;;;;;;;20.98;11.80;;;26.70;99.90;;;;;;5094530;28;20231;-78
2022/08/26 07:54:12;;;;;;;18.02;11.18;;;27.00;99.90;;;;;;5094396;28;20224;-79
2022/08/26 07:56:39;;;;;;;21.13;11.52;;;27.00;99.90;;;;;;5094282;28;20697;-79
2022/08/26 07:59:05;;;;;;;18.10;11.65;;;27.00;99.90;;;;;;5093793;28;20721;-79
2022/08/26 08:01:33;;;;;;;15.60;10.90;;;26.70;99.90;;;;;;5094351;28;20200;-78
2022/08/26 08:03:59;;;;;;;24.55;12.55;;;26.90;99.90;;;;;;5094606;28;20232;-80
2022/08/26 08:06:27;;;;;;;23.00;12.02;;;27.10;99.90;;;;;;5094262;28;20201;-79
2022/08/26 08:08:54;;;;;;;20.42;11.65;;;27.30;99.90;;;;;;5094294;28;20196;-77
2022/08/26 08:11:22;;;;;;;22.80;11.40;;;27.50;99.90;;;;;;5093945;28;20587;-79
2022/08/26 08:13:50;;;;;;;14.38;11.15;;;27.60;99.90;;;;;;5094050;28;20207;-79
2022/08/26 08:16:17;;;;;;;22.17;12.65;;;27.60;99.90;;;;;;5094031;28;20599;-79
2022/08/26 08:18:44;;;;;;;17.92;12.15;;;27.60;99.90;;;;;;5094082;28;20226;-78
2022/08/26 08:21:11;;;;;;;17.48;11.23;;;27.60;99.90;;;;;;5094074;28;20223;-79
2022/08/26 08:23:38;;;;;;;21.75;11.90;;;27.70;99.90;;;;;;5093819;28;20205;-79
2022/08/26 08:26:07;;;;;;;23.55;11.20;;;27.90;99.90;;;;;;5093991;28;20200;-78
2022/08/26 08:28:35;;;;;;;20.42;11.05;;;28.20;99.90;;;;;;5093794;28;20595;-77
2022/08/26 08:31:02;;;;;;;19.65;10.88;;;28.40;99.90;;;;;;5093735;28;20220;-77
2022/08/26 08:33:29;;;;;;;16.08;9.75;;;28.70;99.90;;;;;;5093899;28;20204;-79
2022/08/26 08:35:56;;;;;;;16.17;9.63;;;28.90;99.90;;;;;;5093871;28;20200;-79
2022/08/26 08:38:23;;;;;;;21.02;10.23;;;29.30;99.90;;;;;;5093927;28;20266;-79
2022/08/26 08:40:50;;;;;;;16.48;10.57;;;29.50;99.90;;;;;;5094163;28;20196;-79
2022/08/26 08:43:26;;;;;;;18.92;9.70;;;29.30;99.90;;;;;;5093603;28;20201;-78
2022/08/26 08:45:58;;;;;;;14.57;9.85;;;29.40;99.90;;;;;;5093617;28;20316;-79
2022/08/26 08:48:28;;;;;;;17.92;9.98;;;29.80;99.90;;;;;;5093252;28;20656;-79
2022/08/26 08:50:59;;;;;;;18.40;9.57;;;29.70;99.90;;;;;;5093058;28;20648;-79
2022/08/26 08:53:33;;;;;;;20.63;10.73;;;29.90;99.90;;;;;;5093257;28;20246;-79
2022/08/26 08:56:10;;;;;;;21.65;10.40;;;30.10;99.90;;;;;;5092845;28;20228;-79
2022/08/26 08:58:50;;;;;;;19.40;10.18;;;30.20;99.90;;;;;;5093021;28;20192;-78
2022/08/26 09:01:29;;;;;;;24.95;9.43;;;30.50;99.90;;;;;;5092818;28;20196;-78
2022/08/26 09:04:14;;;;;;;18.90;10.07;;;30.80;99.90;;;;;;5093006;28;20196;-77
2022/08/26 09:06:42;;;;;;;19.40;9.85;;;30.70;99.90;;;;;;5093354;28;20200;-78
2022/08/26 09:09:14;;;;;;;18.15;10.35;;;30.20;99.90;;;;;;5093218;28;20204;-77
2022/08/26 09:11:40;;;;;;;17.95;10.05;;;30.30;99.90;;;;;;5092221;28;20220;-78
2022/08/26 09:14:09;;;;;;;21.70;10.10;;;29.90;99.90;;;;;;5092997;28;20200;-78
2022/08/26 09:16:44;;;;;;;20.42;10.30;;;30.20;99.90;;;;;;5092941;28;20196;-79
2022/08/26 09:19:19;;;;;;;27.88;10.20;;;30.00;99.90;;;;;;5093064;28;20207;-79
2022/08/26 09:21:46;;;;;;;21.35;10.15;;;30.20;99.90;;;;;;5092999;28;20273;-79
2022/08/26 09:24:12;;;;;;;21.90;9.15;;;30.30;99.90;;;;;;5092896;28;20198;-78
2022/08/26 09:26:45;;;;;;;23.20;8.82;;;30.60;99.90;;;;;;5092866;28;20255;-79
2022/08/26 09:29:20;;;;;;;18.52;8.70;;;31.20;99.90;;;;;;5092792;28;20209;-78
2022/08/26 09:31:49;;;;;;;22.08;8.98;;;31.50;99.90;;;;;;5093039;28;20622;-78
2022/08/26 09:34:18;;;;;;;26.77;8.80;;;31.30;99.90;;;;;;5092814;28;20196;-78
2022/08/26 09:36:47;;;;;;;16.95;8.32;;;31.20;99.90;;;;;;5092839;28;20200;-79
2022/08/26 09:39:32;;;;;;;21.63;9.02;;;31.00;99.90;;;;;;5092662;28;20219;-79
2022/08/26 09:42:04;;;;;;;20.48;8.88;;;30.70;99.90;;;;;;5092657;28;20653;-79
2022/08/26 09:44:32;;;;;;;27.90;9.30;;;30.90;99.90;;;;;;5092854;28;20253;-78
2022/08/26 09:47:03;;;;;;;22.35;8.85;;;31.00;99.90;;;;;;5092517;28;20200;-79
2022/08/26 09:49:33;;;;;;;23.63;8.82;;;30.90;99.90;;;;;;5092642;28;20193;-79
2022/08/26 09:52:20;;;;;;;18.40;8.57;;;30.80;99.90;;;;;;5092551;28;20220;-79
2022/08/26 09:55:03;;;;;;;21.95;8.38;;;31.00;99.90;;;;;;5092692;28;20231;-79
2022/08/26 09:57:33;;;;;;;21.65;9.63;;;31.50;99.90;;;;;;5092681;28;20199;-78
2022/08/26 10:00:00;;;;;;;18.52;8.30;;;32.20;99.90;;;;;;5092613;28;20196;-78
2022/08/26 10:02:37;;;;;;;20.40;8.57;;;32.70;99.90;;;;;;5092391;28;20200;-80
2022/08/26 10:05:07;;;;;;;18.73;8.23;;;33.10;99.30;;;;;;5092741;28;20199;-79
2022/08/26 10:07:39;;;;;;;24.90;8.55;;;33.30;98.80;;;;;;5092580;28;20196;-77
2022/08/26 10:10:09;;;;;;;20.30;8.80;;;33.10;98.20;;;;;;5092554;28;20202;-78
2022/08/26 10:12:41;;;;;;;23.45;8.70;;;32.90;98.10;;;;;;5092340;28;20259;-78
2022/08/26 10:15:10;;;;;;;21.13;8.85;;;33.10;97.10;;;;;;5092457;28;20257;-79
2022/08/26 10:17:42;;;;;;;24.65;8.65;;;33.30;97.00;;;;;;5092564;28;20192;-78
2022/08/26 10:20:14;;;;;;;19.70;7.47;;;33.80;95.70;;;;;;5092537;28;20204;-79
2022/08/26 10:22:46;;;;;;;20.52;8.35;;;34.60;94.30;;;;;;5093244;28;20195;-77
2022/08/26 10:25:16;;;;;;;18.20;8.50;;;34.90;93.50;;;;;;5096253;28;20195;-77
2022/08/26 10:27:48;;;;;;;15.20;8.00;;;35.40;91.70;;;;;;5096178;28;20191;-77
2022/08/26 10:30:20;;;;;;;19.10;7.90;;;35.50;90.60;;;;;;5096093;28;20597;-77
2022/08/26 10:32:52;;;;;;;23.75;7.68;;;36.30;88.90;;;;;;5096375;28;20253;-79
2022/08/26 10:35:20;;;;;;;22.48;7.65;;;36.70;83.90;;;;;;5095935;28;20264;-79
2022/08/26 10:37:49;;;;;;;21.42;7.57;;;37.20;81.30;;;;;;5095904;28;20252;-79
2022/08/26 10:40:21;;;;;;;19.90;7.00;;;37.80;75.50;;;;;;5096016;28;20257;-79
2022/08/26 10:42:55;;;;;;;20.75;7.22;;;38.50;71.70;;;;;;5095972;28;20202;-79
2022/08/26 10:45:27;;;;;;;20.92;8.10;;;38.50;65.00;;;;;;5095740;28;20257;-79
2022/08/26 10:48:00;;;;;;;14.75;7.20;;;38.60;62.10;;;;;;5095617;28;20249;-79
2022/08/26 10:50:32;;;;;;;20.13;7.78;;;39.20;59.80;;;;;;5095610;28;20622;-79
2022/08/26 10:53:05;;;;;;;17.73;6.95;;;39.90;56.60;;;;;;5095704;28;20235;-78
2022/08/26 10:55:35;;;;;;;15.23;6.80;;;40.10;53.50;;;;;;5095334;28;20702;-79
2022/08/26 10:58:13;;;;;;;22.05;7.05;;;40.50;51.00;;;;;;5095601;28;20203;-78
2022/08/26 11:03:37;;;;;;;21.77;7.28;;;41.00;46.00;;;;;;5095578;28;20199;-77
2022/08/26 11:06:21;;;;;;;18.23;6.63;;;38.30;47.10;;;;;;5095528;28;20205;-77
2022/08/26 11:08:49;;;;;;;15.25;6.25;;;39.70;45.90;;;;;;5095320;28;20195;-79
2022/08/26 11:11:45;;;;;;;17.02;6.82;;;40.10;44.30;;;;;;5095705;28;20196;-79
2022/08/26 11:14:29;;;;;;;14.48;6.68;;;41.30;43.60;;;;;;5095209;28;20200;-79
2022/08/26 11:16:58;;;;;;;16.50;6.78;;;42.20;40.60;;;;;;5095296;28;20242;-79
2022/08/26 11:20:04;;;;;;;14.50;6.40;;;41.90;38.80;;;;;;5095040;28;20216;-78
2022/08/26 11:22:34;;;;;;;20.50;7.22;;;40.70;39.40;;;;;;5095069;28;20259;-79
2022/08/26 11:25:08;;;;;;;16.55;7.03;;;41.00;40.90;;;;;;5095193;28;20195;-78
2022/08/26 11:28:05;;;;;;;16.92;7.13;;;40.80;39.40;;;;;;5094928;28;20700;-78
2022/08/26 11:30:39;;;;;;;19.05;6.80;;;40.40;39.50;;;;;;5095012;28;20203;-78
2022/08/26 11:33:06;;;;;;;20.17;7.40;;;40.00;39.40;;;;;;5094996;28;20229;-79
2022/08/26 11:35:49;;;;;;;19.02;6.85;;;39.70;38.80;;;;;;5093940;28;20200;-78
2022/08/26 11:38:22;;;;;;;18.65;7.40;;;39.00;38.60;;;;;;5094716;28;20230;-79
2022/08/26 11:41:03;;;;;;;23.27;7.32;;;38.00;40.00;;;;;;5094735;28;20626;-78
2022/08/26 11:43:31;;;;;;;23.60;7.55;;;37.00;40.80;;;;;;5094789;28;20629;-78
2022/08/26 11:46:02;;;;;;;18.45;7.15;;;37.00;41.80;;;;;;5094552;28;20655;-79
2022/08/26 11:48:32;;;;;;;16.50;6.80;;;36.50;42.50;;;;;;5094646;28;20218;-79
2022/08/26 11:51:02;;;;;;;17.42;7.43;;;37.40;42.50;;;;;;5094387;28;20561;-79
2022/08/26 11:53:31;;;;;;;15.57;7.18;;;38.50;41.10;;;;;;5094415;28;20606;-78
2022/08/26 11:55:59;;;;;;;18.25;6.78;;;39.70;40.10;;;;;;5094262;28;20622;-79
2022/08/26 11:58:28;;;;;;;17.63;6.88;;;39.60;38.90;;;;;;5094356;28;20225;-78
2022/08/26 12:00:58;;;;;;;15.05;6.82;;;40.00;38.90;;;;;;5094326;28;20195;-79
2022/08/26 12:03:31;;;;;;;15.18;6.90;;;40.50;37.80;;;;;;5094064;28;20231;-78
2022/08/26 12:05:59;;;;;;;14.88;7.15;;;40.40;37.20;;;;;;5094245;28;20659;-78
2022/08/26 12:08:29;;;;;;;18.33;7.05;;;40.90;36.80;;;;;;5094346;28;20191;-78
2022/08/26 12:11:05;;;;;;;18.35;6.85;;;41.20;35.90;;;;;;5094266;28;20196;-78
2022/08/26 12:13:32;;;;;;;14.05;6.32;;;42.00;34.80;;;;;;5093994;28;20199;-78
2022/08/26 12:16:00;;;;;;;16.20;6.78;;;40.50;33.40;;;;;;5093831;28;20328;-78
2022/08/26 12:18:30;;;;;;;18.10;6.90;;;37.50;35.20;;;;;;5094088;28;20292;-78
2022/08/26 12:21:01;;;;;;;17.60;6.20;;;37.90;37.30;;;;;;5094062;28;20199;-78
2022/08/26 12:23:40;;;;;;;14.13;7.18;;;37.80;37.20;;;;;;5093933;28;20268;-78
2022/08/26 12:26:10;;;;;;;16.08;7.75;;;37.00;37.80;;;;;;5093908;28;20202;-78
2022/08/26 12:28:42;;;;;;;15.10;7.18;;;35.80;39.40;;;;;;5093977;28;20204;-78
2022/08/26 12:31:09;;;;;;;13.80;6.70;;;35.50;40.40;;;;;;5093832;28;20551;-78
2022/08/26 12:33:36;;;;;;;14.65;7.10;;;36.90;39.20;;;;;;5093722;28;20200;-78
2022/08/26 12:36:05;;;;;;;21.52;7.72;;;37.50;38.40;;;;;;5093629;28;20196;-78
2022/08/26 12:38:35;;;;;;;14.02;6.72;;;36.20;39.80;;;;;;5093607;28;20192;-78
2022/08/26 12:41:02;;;;;;;16.67;7.85;;;34.30;42.70;;;;;;5093627;28;20200;-78
2022/08/26 12:43:40;;;;;;;24.30;7.97;;;33.60;43.60;;;;;;5093730;28;20224;-78
2022/08/26 12:46:10;;;;;;;14.20;7.50;;;34.60;43.80;;;;;;5093720;28;20241;-78
2022/08/26 12:48:39;;;;;;;17.58;7.43;;;34.70;43.40;;;;;;5093511;28;20287;-78
2022/08/26 12:51:15;;;;;;;14.75;7.38;;;34.90;44.30;;;;;;5093265;28;20204;-78
2022/08/26 12:53:43;;;;;;;19.08;6.97;;;34.70;44.10;;;;;;5093431;28;20252;-78